createdAt,value
2019-03-31T00:01:11.861Z,51.50
2019-03-31T00:03:40.361Z,49.30
2019-03-31T00:06:08.832Z,54.08
2019-03-31T00:08:40.213Z,48.45
2019-03-31T00:11:08.755Z,55.10
2019-03-31T00:13:37.324Z,51.42
2019-03-31T00:16:06.206Z,52.55
2019-03-31T00:18:34.711Z,53.08
2019-03-31T00:21:06.225Z,47.70
2019-03-31T00:23:34.685Z,52.93
2019-03-31T00:26:03.440Z,48.33
2019-03-31T00:28:32.282Z,47.15
2019-03-31T00:31:00.848Z,48.23
2019-03-31T00:33:29.328Z,50.05
2019-03-31T00:35:57.846Z,44.20
2019-03-31T00:38:26.324Z,43.17
2019-03-31T00:40:56.322Z,40.52
2019-03-31T00:43:24.832Z,37.30
2019-03-31T00:45:53.370Z,36.65
2019-03-31T00:48:23.682Z,32.80
2019-03-31T00:50:52.152Z,32.28
2019-03-31T00:53:21.163Z,28.73
2019-03-31T00:55:49.810Z,29.63
2019-03-31T00:58:18.376Z,27.58
2019-03-31T01:00:49.033Z,26.15
2019-03-31T01:03:19.402Z,23.45
2019-03-31T01:05:48.591Z,23.80
2019-03-31T01:08:17.392Z,24.95
2019-03-31T01:10:46.008Z,21.73
2019-03-31T01:13:14.738Z,25.02
2019-03-31T01:15:43.572Z,25.48
2019-03-31T01:18:12.292Z,24.18
2019-03-31T01:20:41.103Z,24.60
2019-03-31T01:23:09.780Z,24.90
2019-03-31T01:25:38.323Z,24.25
2019-03-31T01:28:06.954Z,24.15
2019-03-31T01:30:41.072Z,23.35
2019-03-31T01:33:09.711Z,20.50
2019-03-31T01:35:38.212Z,23.95
2019-03-31T01:38:06.860Z,22.90
2019-03-31T01:40:35.414Z,24.47
2019-03-31T01:43:03.958Z,24.32
2019-03-31T01:45:32.709Z,22.67
2019-03-31T01:48:01.256Z,24.85
2019-03-31T01:50:29.929Z,24.65
2019-03-31T01:52:58.380Z,24.63
2019-03-31T01:55:26.930Z,23.30
2019-03-31T01:58:00.489Z,23.15
2019-03-31T02:03:10.986Z,19.00
2019-03-31T02:05:39.533Z,19.52
2019-03-31T02:08:08.353Z,20.20
2019-03-31T02:10:39.418Z,19.07
2019-03-31T02:13:07.911Z,18.45
2019-03-31T02:15:36.519Z,18.55
2019-03-31T02:18:05.211Z,18.02
2019-03-31T02:20:33.718Z,16.85
2019-03-31T02:23:02.260Z,18.23
2019-03-31T02:25:30.787Z,18.17
2019-03-31T02:27:59.345Z,19.00
2019-03-31T02:30:27.822Z,18.55
2019-03-31T02:32:56.395Z,18.70
2019-03-31T02:35:24.967Z,19.00
2019-03-31T02:37:53.462Z,20.12
2019-03-31T02:40:22.149Z,20.00
2019-03-31T02:42:50.819Z,20.55
2019-03-31T02:45:19.546Z,20.05
2019-03-31T02:47:48.133Z,20.70
2019-03-31T02:50:45.355Z,22.05
2019-03-31T02:53:14.805Z,19.65
2019-03-31T02:55:44.973Z,22.15
2019-03-31T02:58:17.565Z,19.07
2019-03-31T03:00:46.379Z,18.85
2019-03-31T03:03:17.167Z,18.15
2019-03-31T03:05:45.801Z,17.48
2019-03-31T03:08:15.023Z,18.90
2019-03-31T03:10:44.585Z,18.37
2019-03-31T03:13:14.791Z,17.85
2019-03-31T03:15:59.798Z,17.60
2019-03-31T03:18:28.342Z,17.70
2019-03-31T03:20:56.827Z,17.65
2019-03-31T03:23:25.303Z,16.57
2019-03-31T03:25:56.183Z,17.20
2019-03-31T03:28:24.033Z,16.75
2019-03-31T03:30:52.585Z,16.85
2019-03-31T03:33:21.221Z,17.90
2019-03-31T03:35:52.424Z,15.58
2019-03-31T03:38:20.897Z,14.38
2019-03-31T03:40:49.380Z,16.67
2019-03-31T03:43:17.864Z,16.37
2019-03-31T03:45:48.287Z,15.48
2019-03-31T03:48:17.660Z,16.10
2019-03-31T03:50:46.161Z,14.85
2019-03-31T03:53:14.692Z,14.95
2019-03-31T03:55:43.633Z,14.05
2019-03-31T03:58:14.428Z,14.63
2019-03-31T04:00:44.699Z,13.32
2019-03-31T04:03:29.094Z,14.28
2019-03-31T04:05:44.088Z,13.30
2019-03-31T04:08:12.602Z,13.25
2019-03-31T04:11:04.664Z,11.20
2019-03-31T04:13:33.176Z,10.80
2019-03-31T04:16:01.750Z,10.70
2019-03-31T04:18:30.248Z,11.05
2019-03-31T04:21:00.393Z,11.05
2019-03-31T04:23:33.189Z,8.45
2019-03-31T04:26:01.642Z,9.75
2019-03-31T04:28:31.774Z,9.30
2019-03-31T04:31:00.510Z,10.10
2019-03-31T04:33:48.584Z,9.58
2019-03-31T04:35:59.410Z,8.70
2019-03-31T04:38:27.972Z,7.97
2019-03-31T04:40:56.451Z,8.75
2019-03-31T04:43:24.946Z,7.70
2019-03-31T04:45:53.538Z,7.17
2019-03-31T04:48:22.081Z,6.03
2019-03-31T04:50:52.203Z,6.17
2019-03-31T04:53:21.155Z,5.47
2019-03-31T04:55:49.725Z,4.95
2019-03-31T04:58:18.192Z,5.05
2019-03-31T05:00:46.821Z,4.45
2019-03-31T05:03:15.305Z,5.50
2019-03-31T05:05:43.843Z,4.70
2019-03-31T05:08:12.382Z,4.42
2019-03-31T05:10:43.901Z,4.75
2019-03-31T05:13:12.386Z,3.15
2019-03-31T05:15:40.875Z,3.55
2019-03-31T05:18:09.457Z,3.25
2019-03-31T05:20:39.463Z,3.65
2019-03-31T05:23:08.167Z,3.20
2019-03-31T05:25:36.669Z,3.20
2019-03-31T05:28:06.890Z,3.00
2019-03-31T05:30:35.466Z,2.70
2019-03-31T05:33:04.158Z,2.45
2019-03-31T05:35:32.628Z,2.42
2019-03-31T05:38:01.156Z,2.72
2019-03-31T05:40:31.012Z,2.50
2019-03-31T05:42:59.411Z,2.42
2019-03-31T05:45:27.937Z,2.67
2019-03-31T05:47:56.401Z,2.60
2019-03-31T05:50:25.029Z,2.08
2019-03-31T05:52:54.643Z,2.45
2019-03-31T05:55:23.253Z,2.83
2019-03-31T05:57:51.770Z,2.50
2019-03-31T06:00:54.261Z,2.12
2019-03-31T06:03:22.745Z,2.52
2019-03-31T06:05:51.217Z,2.22
2019-03-31T06:08:19.683Z,2.20
2019-03-31T06:10:48.249Z,2.70
2019-03-31T06:13:16.814Z,2.27
2019-03-31T06:15:47.065Z,2.30
2019-03-31T06:18:15.646Z,2.05
2019-03-31T06:20:44.261Z,2.50
2019-03-31T06:23:12.758Z,2.62
2019-03-31T06:25:41.407Z,2.12
2019-03-31T06:28:10.196Z,2.20
2019-03-31T06:30:40.989Z,2.70
2019-03-31T06:33:12.865Z,2.77
2019-03-31T06:35:41.449Z,2.72
2019-03-31T06:38:09.948Z,2.45
2019-03-31T06:40:41.289Z,2.60
2019-03-31T06:43:09.770Z,2.20
2019-03-31T06:45:38.329Z,2.80
2019-03-31T06:48:06.811Z,2.58
2019-03-31T06:50:35.385Z,2.40
2019-03-31T06:53:03.968Z,2.72
2019-03-31T06:55:35.511Z,2.77
2019-03-31T06:58:04.090Z,3.92
2019-03-31T07:00:32.656Z,2.27
2019-03-31T07:03:01.180Z,2.37
2019-03-31T07:05:29.656Z,2.52
2019-03-31T07:07:58.147Z,3.15
2019-03-31T07:10:29.685Z,3.27
2019-03-31T07:12:59.857Z,3.42
2019-03-31T07:15:28.531Z,3.22
2019-03-31T07:17:57.030Z,3.02
2019-03-31T07:20:27.064Z,2.67
2019-03-31T07:22:57.630Z,3.15
2019-03-31T07:25:26.196Z,3.22
2019-03-31T07:27:54.670Z,2.72
2019-03-31T07:30:23.380Z,2.33
2019-03-31T07:32:51.858Z,3.02
2019-03-31T07:35:20.803Z,2.80
2019-03-31T07:37:49.433Z,3.25
2019-03-31T07:40:23.652Z,2.27
2019-03-31T07:42:52.235Z,2.62
2019-03-31T07:45:20.906Z,2.58
2019-03-31T07:47:51.559Z,2.60
2019-03-31T07:50:20.710Z,2.65
2019-03-31T07:52:49.185Z,2.30
2019-03-31T07:55:18.206Z,2.87
2019-03-31T07:57:46.642Z,2.27
2019-03-31T08:00:18.268Z,2.75
2019-03-31T08:02:46.728Z,2.90
2019-03-31T08:05:16.535Z,2.75
2019-03-31T08:07:45.196Z,2.55
2019-03-31T08:10:14.842Z,2.70
2019-03-31T08:12:43.565Z,2.58
2019-03-31T08:15:12.652Z,3.08
2019-03-31T08:17:42.940Z,3.02
2019-03-31T08:20:13.796Z,2.95
2019-03-31T08:22:42.362Z,2.60
2019-03-31T08:25:13.244Z,3.00
2019-03-31T08:27:41.703Z,2.95
2019-03-31T08:30:13.528Z,2.60
2019-03-31T08:32:42.141Z,2.67
2019-03-31T08:35:11.318Z,2.87
2019-03-31T08:37:39.918Z,2.20
2019-03-31T08:40:13.500Z,2.20
2019-03-31T08:42:42.059Z,2.90
2019-03-31T08:45:11.227Z,2.45
2019-03-31T08:47:39.840Z,2.75
2019-03-31T08:50:08.988Z,2.60
2019-03-31T08:52:37.519Z,2.10
2019-03-31T08:55:06.693Z,2.10
2019-03-31T08:57:37.143Z,2.15
2019-03-31T09:00:09.479Z,1.90
2019-03-31T09:02:37.948Z,1.75
2019-03-31T09:05:09.777Z,2.20
2019-03-31T09:07:41.586Z,2.35
2019-03-31T09:10:10.048Z,2.08
2019-03-31T09:12:38.963Z,2.60
2019-03-31T09:15:10.094Z,2.27
2019-03-31T09:17:38.838Z,2.37
2019-03-31T09:20:08.404Z,2.22
2019-03-31T09:22:36.957Z,2.60
2019-03-31T09:25:06.897Z,2.62
2019-03-31T09:27:35.407Z,2.52
2019-03-31T09:30:06.758Z,2.60
2019-03-31T09:32:35.281Z,2.17
2019-03-31T09:35:07.892Z,2.58
2019-03-31T09:37:36.386Z,2.30
2019-03-31T09:40:07.928Z,2.25
2019-03-31T09:42:36.485Z,2.17
2019-03-31T09:45:06.685Z,2.17
2019-03-31T09:47:35.367Z,2.02
2019-03-31T09:50:07.127Z,2.15
2019-03-31T09:52:35.539Z,2.33
2019-03-31T09:55:06.227Z,1.98
2019-03-31T09:57:39.272Z,1.85
2019-03-31T10:00:11.274Z,1.77
2019-03-31T10:02:39.816Z,2.10
2019-03-31T10:05:08.703Z,2.10
2019-03-31T10:07:38.883Z,1.70
2019-03-31T10:10:32.917Z,2.40
2019-03-31T10:13:02.069Z,2.17
2019-03-31T10:15:32.290Z,2.40
2019-03-31T10:18:00.766Z,2.20
2019-03-31T10:20:31.480Z,2.27
2019-03-31T10:22:59.653Z,2.08
2019-03-31T10:25:31.156Z,2.35
2019-03-31T10:27:59.633Z,2.00
2019-03-31T10:30:38.759Z,2.35
2019-03-31T10:33:08.055Z,1.90
2019-03-31T10:35:36.853Z,2.25
2019-03-31T10:38:08.969Z,2.10
2019-03-31T10:40:37.547Z,2.02
2019-03-31T10:43:06.119Z,2.10
2019-03-31T10:45:34.618Z,2.35
2019-03-31T10:48:19.611Z,2.33
2019-03-31T10:50:36.434Z,2.67
2019-03-31T10:53:05.782Z,2.45
2019-03-31T10:55:34.398Z,3.10
2019-03-31T10:58:07.404Z,2.30
2019-03-31T11:00:37.976Z,2.20
2019-03-31T11:03:08.378Z,2.30
2019-03-31T11:05:37.077Z,2.30
2019-03-31T11:08:06.376Z,2.20
2019-03-31T11:10:35.388Z,2.25
2019-03-31T11:13:03.976Z,2.42
2019-03-31T11:15:32.575Z,2.33
2019-03-31T11:18:01.149Z,2.10
2019-03-31T11:20:29.625Z,2.65
2019-03-31T11:23:01.203Z,2.35
2019-03-31T11:25:29.701Z,2.25
2019-03-31T11:28:02.276Z,2.42
2019-03-31T11:30:31.110Z,2.15
2019-03-31T11:32:59.610Z,2.70
2019-03-31T11:35:28.086Z,2.33
2019-03-31T11:37:56.575Z,2.10
2019-03-31T11:40:25.126Z,2.17
2019-03-31T11:42:53.587Z,2.15
2019-03-31T11:45:22.264Z,2.02
2019-03-31T11:47:50.750Z,2.40
2019-03-31T11:50:22.816Z,2.00
2019-03-31T11:52:51.310Z,2.40
2019-03-31T11:55:20.003Z,2.20
2019-03-31T11:57:48.482Z,2.20
2019-03-31T12:00:18.794Z,2.30
2019-03-31T12:02:47.268Z,2.20
2019-03-31T12:05:16.265Z,2.35
2019-03-31T12:07:47.778Z,2.35
2019-03-31T12:10:20.099Z,2.25
2019-03-31T12:12:48.891Z,1.92
2019-03-31T12:15:20.354Z,2.17
2019-03-31T12:17:48.822Z,2.42
2019-03-31T12:20:17.512Z,2.20
2019-03-31T12:22:45.989Z,2.40
2019-03-31T12:25:14.651Z,2.27
2019-03-31T12:27:43.175Z,2.50
2019-03-31T12:30:12.028Z,2.35
2019-03-31T12:32:40.675Z,1.82
2019-03-31T12:35:09.489Z,2.10
2019-03-31T12:37:42.906Z,1.92
2019-03-31T12:40:10.453Z,2.30
2019-03-31T12:42:39.012Z,2.47
2019-03-31T12:45:07.759Z,2.45
2019-03-31T12:47:36.273Z,3.00
2019-03-31T12:50:06.860Z,2.65
2019-03-31T12:52:46.662Z,2.20
2019-03-31T12:55:08.064Z,2.15
2019-03-31T12:57:36.580Z,2.58
2019-03-31T13:00:08.664Z,2.40
2019-03-31T13:02:37.144Z,3.08
2019-03-31T13:05:07.201Z,2.17
2019-03-31T13:07:35.685Z,2.60
2019-03-31T13:10:05.146Z,2.50
2019-03-31T13:12:35.108Z,2.47
2019-03-31T13:15:05.461Z,2.87
2019-03-31T13:17:34.195Z,2.70
2019-03-31T13:20:04.394Z,2.65
2019-03-31T13:22:33.206Z,2.62
2019-03-31T13:25:02.536Z,2.72
2019-03-31T13:27:31.614Z,2.33
2019-03-31T13:30:00.302Z,2.05
2019-03-31T13:32:28.851Z,2.47
2019-03-31T13:34:57.367Z,2.55
2019-03-31T13:37:25.847Z,2.37
2019-03-31T13:39:55.985Z,2.98
2019-03-31T13:42:24.486Z,2.05
2019-03-31T13:44:53.074Z,2.75
2019-03-31T13:47:21.555Z,2.60
2019-03-31T13:49:50.075Z,2.20
2019-03-31T13:52:23.300Z,1.70
2019-03-31T13:54:51.817Z,2.20
2019-03-31T13:57:23.403Z,2.10
2019-03-31T13:59:54.507Z,1.92
2019-03-31T14:02:25.807Z,2.22
2019-03-31T14:04:54.294Z,2.25
2019-03-31T14:07:22.786Z,2.25
2019-03-31T14:09:51.286Z,2.33
2019-03-31T14:12:19.796Z,2.52
2019-03-31T14:14:48.559Z,2.80
2019-03-31T14:17:17.106Z,2.50
2019-03-31T14:19:45.637Z,2.05
2019-03-31T14:22:14.199Z,2.62
2019-03-31T14:24:42.688Z,2.52
2019-03-31T14:27:11.238Z,2.30
2019-03-31T14:29:42.438Z,2.25
2019-03-31T14:32:10.328Z,2.72
2019-03-31T14:34:38.880Z,2.27
2019-03-31T14:37:07.354Z,2.00
2019-03-31T14:39:35.915Z,2.50
2019-03-31T14:42:04.396Z,2.30
2019-03-31T14:44:32.976Z,2.20
2019-03-31T14:47:04.768Z,2.50
2019-03-31T14:49:33.250Z,2.33
2019-03-31T14:52:01.815Z,2.60
2019-03-31T14:54:33.072Z,2.08
2019-03-31T14:57:01.615Z,2.10
2019-03-31T14:59:30.130Z,2.42
2019-03-31T15:01:58.754Z,2.22
2019-03-31T15:04:27.338Z,2.27
2019-03-31T15:06:58.231Z,2.35
2019-03-31T15:09:26.709Z,2.30
2019-03-31T15:11:55.696Z,2.10
2019-03-31T15:14:24.237Z,2.30
2019-03-31T15:16:52.728Z,2.05
2019-03-31T15:19:21.275Z,2.52
2019-03-31T15:21:51.361Z,2.30
2019-03-31T15:24:19.847Z,2.20
2019-03-31T15:26:48.417Z,2.10
2019-03-31T15:29:17.042Z,1.85
2019-03-31T15:31:45.518Z,1.80
2019-03-31T15:34:14.424Z,1.67
2019-03-31T15:36:42.923Z,2.75
2019-03-31T15:39:11.477Z,2.98
2019-03-31T15:41:40.026Z,2.22
2019-03-31T15:44:08.502Z,2.20
2019-03-31T15:46:37.140Z,2.67
2019-03-31T15:49:05.773Z,2.55
2019-03-31T15:51:35.820Z,2.30
2019-03-31T15:54:04.449Z,1.80
2019-03-31T15:56:32.893Z,2.00
2019-03-31T15:59:01.394Z,1.90
2019-03-31T16:01:31.807Z,2.10
2019-03-31T16:04:00.277Z,1.90
2019-03-31T16:06:32.468Z,2.27
2019-03-31T16:09:00.953Z,1.77
2019-03-31T16:11:29.522Z,2.10
2019-03-31T16:13:57.976Z,1.80
2019-03-31T16:16:30.660Z,2.00
2019-03-31T16:18:59.756Z,2.20
2019-03-31T16:21:32.546Z,2.50
2019-03-31T16:24:03.967Z,2.22
2019-03-31T16:26:34.298Z,1.70
2019-03-31T16:29:02.774Z,2.15
2019-03-31T16:31:31.403Z,2.08
2019-03-31T16:33:59.871Z,2.10
2019-03-31T16:36:28.741Z,1.72
2019-03-31T16:38:57.863Z,2.35
2019-03-31T16:41:26.345Z,2.40
2019-03-31T16:43:56.528Z,1.92
2019-03-31T16:46:25.008Z,1.80
2019-03-31T16:48:56.077Z,2.10
2019-03-31T16:51:26.885Z,2.92
2019-03-31T16:53:56.390Z,2.20
2019-03-31T16:56:24.900Z,2.08
2019-03-31T16:58:53.387Z,1.77
2019-03-31T17:01:21.871Z,1.98
2019-03-31T17:03:50.360Z,1.80
2019-03-31T17:06:18.831Z,2.37
2019-03-31T17:08:49.185Z,1.90
2019-03-31T17:11:17.738Z,1.70
2019-03-31T17:13:46.255Z,2.47
2019-03-31T17:16:15.578Z,2.45
2019-03-31T17:18:44.247Z,2.70
2019-03-31T17:21:12.794Z,2.20
2019-03-31T17:23:41.339Z,2.33
2019-03-31T17:26:11.454Z,1.87
2019-03-31T17:28:39.947Z,1.90
2019-03-31T17:31:08.554Z,2.20
2019-03-31T17:33:38.452Z,1.55
2019-03-31T17:36:07.046Z,1.82
2019-03-31T17:38:36.101Z,2.25
2019-03-31T17:41:04.607Z,2.12
2019-03-31T17:43:33.068Z,1.82
2019-03-31T17:46:01.556Z,2.02
2019-03-31T17:48:30.027Z,2.62
2019-03-31T17:50:58.520Z,1.95
2019-03-31T17:53:36.292Z,1.87
2019-03-31T17:56:04.950Z,2.33
2019-03-31T17:58:33.436Z,2.27
2019-03-31T18:01:02.649Z,2.15
2019-03-31T18:03:31.121Z,2.10
2019-03-31T18:06:01.142Z,2.40
2019-03-31T18:08:29.613Z,2.10
2019-03-31T18:10:58.122Z,2.50
2019-03-31T18:13:26.584Z,2.42
2019-03-31T18:15:55.135Z,2.92
2019-03-31T18:18:26.690Z,2.17
2019-03-31T18:20:55.221Z,3.15
2019-03-31T18:23:23.694Z,3.22
2019-03-31T18:25:52.165Z,3.33
2019-03-31T18:28:20.651Z,3.00
2019-03-31T18:30:49.126Z,2.40
2019-03-31T18:33:17.686Z,2.75
2019-03-31T18:35:46.160Z,2.50
2019-03-31T18:38:14.862Z,3.70
2019-03-31T18:40:46.877Z,3.17
2019-03-31T18:43:15.358Z,2.85
2019-03-31T18:45:46.396Z,3.00
2019-03-31T18:48:14.871Z,3.08
2019-03-31T18:50:44.919Z,3.37
2019-03-31T18:53:15.096Z,3.30
2019-03-31T18:55:51.326Z,2.22
2019-03-31T18:58:21.979Z,2.30
2019-03-31T19:01:01.169Z,2.52
2019-03-31T19:03:34.034Z,2.40
2019-03-31T19:06:04.493Z,2.17
2019-03-31T19:08:46.630Z,2.08
2019-03-31T19:14:17.439Z,2.10
2019-03-31T19:17:03.464Z,13.83
2019-03-31T19:19:39.444Z,74.50
2019-03-31T19:22:27.089Z,19.57
2019-03-31T19:25:09.665Z,8.15
2019-03-31T19:27:48.649Z,3.22
2019-03-31T19:30:18.935Z,3.42
2019-03-31T19:33:00.809Z,3.33
2019-03-31T19:35:37.047Z,2.95
2019-03-31T19:41:05.262Z,3.30
2019-03-31T19:43:51.459Z,2.67
2019-03-31T19:46:29.778Z,2.58
2019-03-31T19:49:05.759Z,2.40
2019-03-31T19:51:40.003Z,2.42
2019-03-31T19:54:26.043Z,2.30
2019-03-31T19:57:14.356Z,1.75
2019-03-31T19:59:53.541Z,2.12
2019-03-31T20:02:25.349Z,2.08
2019-03-31T20:05:03.176Z,1.92
2019-03-31T20:07:42.415Z,1.80
2019-03-31T20:10:14.371Z,2.17
2019-03-31T20:12:47.425Z,2.60
2019-03-31T20:15:20.710Z,2.10
2019-03-31T20:23:27.212Z,4.30
2019-03-31T20:25:57.373Z,3.80
2019-03-31T20:28:32.980Z,3.42
2019-03-31T20:31:20.452Z,2.83
2019-03-31T20:33:56.527Z,2.37
2019-03-31T20:36:32.903Z,1.87
2019-03-31T20:39:22.716Z,3.05
2019-03-31T20:41:52.851Z,2.58
2019-03-31T20:44:21.405Z,2.37
2019-03-31T20:46:49.946Z,2.40
2019-03-31T20:49:21.527Z,2.30
2019-03-31T20:51:50.013Z,2.20
2019-03-31T20:54:20.149Z,1.90
2019-03-31T20:56:49.814Z,1.77
2019-03-31T20:59:18.347Z,2.20
2019-03-31T21:01:46.897Z,1.90
2019-03-31T21:04:15.380Z,2.25
2019-03-31T21:06:43.913Z,2.10
2019-03-31T21:09:15.194Z,1.82
2019-03-31T21:11:45.209Z,2.35
2019-03-31T21:14:13.723Z,2.10
2019-03-31T21:16:42.169Z,1.72
2019-03-31T21:19:10.666Z,1.72
2019-03-31T21:21:41.238Z,2.08
2019-03-31T21:24:09.732Z,2.77
2019-03-31T21:26:38.275Z,2.20
2019-03-31T21:29:09.019Z,2.05
2019-03-31T21:31:37.494Z,2.20
2019-03-31T21:34:05.999Z,1.77
2019-03-31T21:36:34.540Z,2.95
2019-03-31T21:39:04.690Z,2.00
2019-03-31T21:41:33.172Z,2.37
2019-03-31T21:44:01.734Z,1.85
2019-03-31T21:46:45.076Z,2.10
2019-03-31T21:49:09.347Z,2.20
2019-03-31T21:51:37.928Z,2.58
2019-03-31T21:54:09.702Z,2.70
2019-03-31T21:56:38.188Z,2.70
2019-03-31T21:59:06.769Z,2.83
2019-03-31T22:01:38.006Z,2.10
2019-03-31T22:04:09.182Z,2.08
2019-03-31T22:06:39.379Z,2.15
2019-03-31T22:09:09.635Z,2.50
2019-03-31T22:11:38.104Z,2.12
2019-03-31T22:14:06.582Z,1.75
2019-03-31T22:16:35.376Z,1.72
2019-03-31T22:19:03.850Z,1.70
2019-03-31T22:21:32.293Z,2.00
2019-03-31T22:24:00.827Z,1.40
2019-03-31T22:26:29.299Z,2.17
2019-03-31T22:28:58.045Z,2.30
2019-03-31T22:31:26.580Z,1.85
2019-03-31T22:33:55.146Z,2.20
2019-03-31T22:36:26.388Z,1.87
2019-03-31T22:38:55.114Z,1.90
2019-03-31T22:41:23.659Z,1.95
2019-03-31T22:43:52.284Z,1.77
2019-03-31T22:46:20.774Z,1.80
2019-03-31T22:48:49.228Z,1.70
2019-03-31T22:51:17.769Z,1.75
2019-03-31T22:53:46.450Z,2.00
2019-03-31T22:56:15.130Z,2.20
2019-03-31T22:58:45.949Z,1.57
2019-03-31T23:01:14.813Z,1.47
2019-03-31T23:03:43.752Z,2.17
2019-03-31T23:06:12.245Z,1.22
2019-03-31T23:08:40.712Z,2.15
2019-03-31T23:11:09.270Z,1.72
2019-03-31T23:13:38.569Z,2.20
2019-03-31T23:16:10.008Z,2.22
2019-03-31T23:18:38.533Z,1.87
2019-03-31T23:21:07.002Z,2.02
2019-03-31T23:23:35.488Z,1.75
2019-03-31T23:26:03.975Z,1.92
2019-03-31T23:28:32.450Z,1.70
2019-03-31T23:31:03.536Z,1.52
2019-03-31T23:33:33.916Z,2.15
2019-03-31T23:36:02.454Z,1.60
2019-03-31T23:38:31.084Z,1.95
2019-03-31T23:40:59.564Z,1.92
2019-03-31T23:43:30.141Z,1.65
2019-03-31T23:45:58.635Z,1.60
2019-03-31T23:48:27.164Z,2.05
2019-03-31T23:50:55.665Z,1.60
2019-03-31T23:53:24.193Z,1.37
2019-03-31T23:55:53.163Z,2.08
2019-03-31T23:58:24.633Z,2.35
